Time;durP1;ratioP1;P1;durP2;ratioP2;P2;SDS_P1;SDS_P2;PMS_P1;PMS_P2;Temp;Humidity;BMP_temperature;BMP_pressure;BME280_temperature;BME280_humidity;BME280_pressure;Samples;Min_cycle;Max_cycle;Signal;HPM_P1;HPM_P2
2024/01/24 00:01:39;;;;;;;54.40;29.35;;;;;;;-0.38;100.00;101751.87;5551457;32;34711;-68
2024/01/24 00:04:43;;;;;;;50.83;29.00;;;;;;;-0.36;100.00;101737.03;5551321;32;34003;-67
2024/01/24 00:07:45;;;;;;;52.83;28.70;;;;;;;-0.39;100.00;101745.00;5551053;32;34269;-67
2024/01/24 00:10:48;;;;;;;53.35;30.25;;;;;;;-0.43;100.00;101754.69;5551142;32;34733;-67
2024/01/24 00:13:51;;;;;;;56.83;29.55;;;;;;;-0.46;100.00;101764.38;5551264;32;34110;-68
2024/01/24 00:16:54;;;;;;;52.08;29.02;;;;;;;-0.48;100.00;101758.38;5551037;32;34040;-67
2024/01/24 00:19:56;;;;;;;55.15;30.50;;;;;;;-0.50;100.00;101762.81;5550917;32;34325;-67
2024/01/24 00:22:59;;;;;;;56.22;32.15;;;;;;;-0.50;100.00;101778.47;5551015;32;34042;-68
2024/01/24 00:26:02;;;;;;;52.20;31.65;;;;;;;-0.48;100.00;101777.47;5551593;32;34123;-68
2024/01/24 00:29:05;;;;;;;58.65;31.77;;;;;;;-0.56;100.00;101782.16;5550155;32;34264;-67
2024/01/24 00:32:08;;;;;;;59.30;33.38;;;;;;;-0.62;100.00;101792.84;5550746;32;34051;-67
2024/01/24 00:35:10;;;;;;;63.87;35.85;;;;;;;-0.70;100.00;101776.69;5550872;32;34738;-68
2024/01/24 00:38:13;;;;;;;65.20;36.78;;;;;;;-0.77;100.00;101767.41;5550707;32;34516;-68
2024/01/24 00:41:16;;;;;;;69.50;37.60;;;;;;;-0.81;100.00;101768.44;5550718;32;34781;-67
2024/01/24 00:44:19;;;;;;;61.47;36.47;;;;;;;-0.84;100.00;101755.53;5550122;32;34293;-67
2024/01/24 00:47:22;;;;;;;62.05;37.33;;;;;;;-0.87;100.00;101758.25;5550857;32;34144;-68
2024/01/24 00:50:24;;;;;;;64.60;36.67;;;;;;;-0.86;100.00;101770.38;5550973;32;33971;-68
2024/01/24 00:53:29;;;;;;;60.50;34.22;;;;;;;-0.92;100.00;101771.47;5550387;32;34761;-68
2024/01/24 00:56:32;;;;;;;63.22;35.05;;;;;;;-0.98;100.00;101776.94;5549991;32;34025;-68
2024/01/24 00:59:34;;;;;;;61.78;34.72;;;;;;;-1.05;100.00;101772.84;5550929;32;34052;-67
2024/01/24 01:02:37;;;;;;;59.75;33.30;;;;;;;-1.00;100.00;101767.47;5550608;32;34848;-68
2024/01/24 01:05:40;;;;;;;59.08;33.70;;;;;;;-0.93;100.00;101767.19;5550686;32;34920;-67
2024/01/24 01:08:43;;;;;;;60.15;32.85;;;;;;;-0.78;100.00;101767.47;5550057;32;34953;-68
2024/01/24 01:11:46;;;;;;;59.90;31.62;;;;;;;-0.60;100.00;101761.50;5550556;32;33978;-68
2024/01/24 01:14:48;;;;;;;57.47;31.05;;;;;;;-0.71;100.00;101759.34;5549694;32;33961;-67
2024/01/24 01:17:51;;;;;;;58.22;30.17;;;;;;;-0.78;100.00;101749.25;5549858;32;33997;-69
2024/01/24 01:20:54;;;;;;;54.22;29.92;;;;;;;-0.77;100.00;101730.91;5550478;32;34199;-67
2024/01/24 01:23:57;;;;;;;52.05;28.48;;;;;;;-0.76;100.00;101727.41;5550642;32;34126;-69
2024/01/24 01:27:00;;;;;;;47.28;26.62;;;;;;;-0.72;100.00;101723.75;5550552;32;34728;-68
2024/01/24 01:30:03;;;;;;;52.60;27.00;;;;;;;-0.70;100.00;101703.72;5550683;32;34686;-69
2024/01/24 01:33:06;;;;;;;49.45;27.67;;;;;;;-0.66;100.00;101702.66;5550453;32;34852;-68
2024/01/24 01:36:09;;;;;;;52.47;29.80;;;;;;;-0.66;100.00;101713.09;5550330;32;34671;-68
2024/01/24 01:39:24;;;;;;;54.70;31.45;;;;;;;-0.62;100.00;101712.03;5550204;32;34519;-68
2024/01/24 01:42:27;;;;;;;54.72;31.77;;;;;;;-0.77;100.00;101702.25;5550361;32;34723;-68
2024/01/24 01:45:30;;;;;;;60.67;33.67;;;;;;;-0.92;100.00;101689.88;5550293;32;34164;-68
2024/01/24 01:48:34;;;;;;;61.45;33.97;;;;;;;-0.91;100.00;101673.31;5550244;32;34473;-68
2024/01/24 01:51:37;;;;;;;59.95;33.80;;;;;;;-1.04;100.00;101672.16;5550183;32;34029;-68
2024/01/24 01:54:42;;;;;;;63.35;34.53;;;;;;;-1.13;100.00;101683.78;5550184;32;34227;-68
2024/01/24 01:57:46;;;;;;;62.72;35.28;;;;;;;-1.16;100.00;101678.69;5550083;32;34937;-68
2024/01/24 02:00:50;;;;;;;62.00;36.00;;;;;;;-1.21;100.00;101682.41;5550341;32;34082;-68
2024/01/24 02:03:53;;;;;;;60.40;35.97;;;;;;;-1.23;100.00;101682.47;5550185;32;34718;-68
2024/01/24 02:06:56;;;;;;;62.08;35.15;;;;;;;-1.29;100.00;101682.69;5549407;32;34766;-68
2024/01/24 02:09:59;;;;;;;64.07;35.13;;;;;;;-1.30;100.00;101678.38;5550063;32;33956;-68
2024/01/24 02:13:02;;;;;;;59.85;35.30;;;;;;;-1.32;100.00;101665.44;5550003;32;34102;-68
2024/01/24 02:16:06;;;;;;;58.30;33.97;;;;;;;-1.33;100.00;101655.94;5550162;32;34675;-68
2024/01/24 02:19:09;;;;;;;60.78;34.85;;;;;;;-1.33;100.00;101660.28;5550299;32;34685;-68
2024/01/24 02:22:12;;;;;;;57.85;34.28;;;;;;;-1.35;100.00;101655.16;5549961;32;34840;-68
2024/01/24 02:25:14;;;;;;;61.65;34.92;;;;;;;-1.36;100.00;101653.47;5550314;32;34019;-68
2024/01/24 02:28:18;;;;;;;62.65;35.17;;;;;;;-1.38;100.00;101650.06;5549916;32;34665;-69
2024/01/24 02:31:21;;;;;;;58.20;32.85;;;;;;;-1.38;100.00;101639.66;5549854;32;34776;-68
2024/01/24 02:34:24;;;;;;;59.22;33.63;;;;;;;-1.40;100.00;101638.84;5549957;32;34191;-68
2024/01/24 02:37:26;;;;;;;59.75;33.20;;;;;;;-1.39;100.00;101650.13;5549135;32;33969;-68
2024/01/24 02:40:29;;;;;;;58.97;33.20;;;;;;;-1.33;100.00;101648.13;5549615;32;34241;-68
2024/01/24 02:43:32;;;;;;;55.45;33.22;;;;;;;-1.14;100.00;101656.03;5549356;32;34079;-68
2024/01/24 02:46:35;;;;;;;59.15;34.08;;;;;;;-0.85;100.00;101644.41;5550093;32;34851;-68
2024/01/24 02:49:39;;;;;;;57.97;33.38;;;;;;;-0.72;100.00;101634.31;5549652;32;34054;-68
2024/01/24 02:52:42;;;;;;;55.60;32.35;;;;;;;-0.80;100.00;101646.84;5549829;32;34443;-68
2024/01/24 02:55:45;;;;;;;58.28;33.42;;;;;;;-0.77;100.00;101636.28;5549807;32;34769;-68
2024/01/24 02:58:48;;;;;;;53.97;31.40;;;;;;;-0.75;100.00;101645.72;5549775;32;34726;-68
2024/01/24 03:01:51;;;;;;;49.55;29.87;;;;;;;-0.71;100.00;101630.81;5549778;32;34093;-68
2024/01/24 03:04:54;;;;;;;50.00;29.58;;;;;;;-0.71;100.00;101626.44;5549735;32;34798;-68
2024/01/24 03:07:58;;;;;;;53.40;30.83;;;;;;;-0.65;100.00;101604.50;5549783;32;34813;-68
2024/01/24 03:11:01;;;;;;;50.47;29.40;;;;;;;-0.66;100.00;101593.22;5549508;32;34372;-68
2024/01/24 03:14:04;;;;;;;47.53;28.12;;;;;;;-0.73;100.00;101588.34;5549536;32;34992;-68
2024/01/24 03:17:08;;;;;;;53.80;29.15;;;;;;;-0.79;100.00;101578.19;5548518;32;34775;-69
2024/01/24 03:20:12;;;;;;;48.53;29.12;;;;;;;-0.82;100.00;101571.34;5549792;32;34659;-69
2024/01/24 03:23:16;;;;;;;50.50;29.27;;;;;;;-0.81;100.00;101565.22;5548874;32;34097;-69
2024/01/24 03:26:19;;;;;;;49.55;29.92;;;;;;;-0.82;100.00;101563.53;5549388;32;34154;-69
2024/01/24 03:29:22;;;;;;;46.53;28.60;;;;;;;-0.53;100.00;101557.88;5549357;32;34231;-69
2024/01/24 03:32:25;;;;;;;49.33;29.48;;;;;;;-0.41;100.00;101560.84;5549188;32;34161;-69
2024/01/24 03:35:28;;;;;;;50.08;28.85;;;;;;;-0.20;100.00;101547.69;5549192;32;34047;-69
2024/01/24 03:38:30;;;;;;;53.95;28.52;;;;;;;-0.13;100.00;101543.03;5549226;32;34682;-69
2024/01/24 03:41:33;;;;;;;49.92;29.63;;;;;;;-0.28;100.00;101539.38;5548900;32;34598;-69
2024/01/24 03:44:36;;;;;;;47.03;27.65;;;;;;;-0.44;100.00;101525.34;5549184;32;34324;-70
2024/01/24 03:47:39;;;;;;;45.45;28.83;;;;;;;-0.55;100.00;101535.41;5548476;32;34014;-69
2024/01/24 03:50:41;;;;;;;46.92;27.35;;;;;;;-0.57;100.00;101535.47;5535412;32;34007;-69
2024/01/24 03:53:44;;;;;;;43.97;26.15;;;;;;;-0.60;100.00;101533.03;5548926;32;34687;-69
2024/01/24 03:56:47;;;;;;;50.28;28.20;;;;;;;-0.57;100.00;101539.84;5548964;32;34824;-69
2024/01/24 03:59:50;;;;;;;48.58;27.62;;;;;;;-0.54;100.00;101544.94;5548845;32;35543;-69
2024/01/24 04:02:53;;;;;;;46.20;28.17;;;;;;;-0.42;100.00;101546.97;5548332;32;33101;-69
2024/01/24 04:05:56;;;;;;;47.70;28.23;;;;;;;-0.34;100.00;101534.47;5549017;32;34754;-69
2024/01/24 04:08:59;;;;;;;48.47;27.98;;;;;;;-0.26;100.00;101534.94;5548664;32;34036;-69
2024/01/24 04:12:02;;;;;;;45.12;27.02;;;;;;;-0.20;100.00;101536.41;5548773;32;34271;-69
2024/01/24 04:15:06;;;;;;;48.80;27.15;;;;;;;-0.15;100.00;101535.28;5548500;32;34782;-69
2024/01/24 04:18:09;;;;;;;47.97;28.15;;;;;;;-0.06;100.00;101529.66;5548453;32;34260;-69
2024/01/24 04:21:12;;;;;;;45.75;26.50;;;;;;;-0.04;100.00;101522.56;5548536;32;34714;-69
2024/01/24 04:24:15;;;;;;;44.80;26.10;;;;;;;0.03;100.00;101524.91;5547640;32;33939;-69
2024/01/24 04:27:18;;;;;;;43.95;25.55;;;;;;;0.14;100.00;101526.09;5548293;32;34782;-69
2024/01/24 04:30:22;;;;;;;40.05;23.85;;;;;;;0.24;100.00;101531.72;5550224;32;34244;-70
2024/01/24 04:33:25;;;;;;;38.70;22.42;;;;;;;0.31;100.00;101531.34;5550297;32;34087;-69
2024/01/24 04:36:31;;;;;;;38.17;21.33;;;;;;;0.41;100.00;101532.56;5551373;32;34107;-69
2024/01/24 04:39:34;;;;;;;36.00;20.37;;;;;;;0.50;100.00;101535.66;5550981;32;34760;-69
2024/01/24 04:42:38;;;;;;;32.38;18.50;;;;;;;0.59;100.00;101536.03;5550721;32;35007;-69
2024/01/24 04:45:41;;;;;;;42.35;21.25;;;;;;;0.63;100.00;101528.91;5550844;32;34800;-69
2024/01/24 04:48:45;;;;;;;36.70;21.48;;;;;;;0.70;100.00;101533.75;5551058;32;34096;-69
2024/01/24 04:51:48;;;;;;;39.03;21.52;;;;;;;0.75;100.00;101526.53;5551008;32;34713;-69
2024/01/24 04:54:52;;;;;;;38.15;23.00;;;;;;;0.76;100.00;101530.00;5550776;32;34084;-69
2024/01/24 04:57:55;;;;;;;35.58;21.05;;;;;;;0.77;100.00;101523.84;5550418;32;33972;-69
2024/01/24 05:00:58;;;;;;;38.00;21.75;;;;;;;0.72;100.00;101523.22;5550834;32;34221;-69
2024/01/24 05:04:00;;;;;;;39.60;22.75;;;;;;;0.76;100.00;101509.94;5549994;32;34599;-68
2024/01/24 05:07:03;;;;;;;35.75;18.45;;;;;;;0.73;100.00;101517.91;5550722;32;34065;-69
2024/01/24 05:10:07;;;;;;;28.62;15.95;;;;;;;0.82;100.00;101504.37;5550798;32;34067;-69
2024/01/24 05:13:09;;;;;;;30.62;15.57;;;;;;;0.94;100.00;101502.06;5550388;32;34975;-69
2024/01/24 05:16:12;;;;;;;27.67;14.50;;;;;;;1.03;100.00;101509.44;5549917;32;34920;-69
2024/01/24 05:19:16;;;;;;;26.37;14.35;;;;;;;1.04;100.00;101506.75;5550849;32;34056;-68
2024/01/24 05:22:19;;;;;;;24.50;13.38;;;;;;;1.06;100.00;101515.37;5550426;32;34323;-68
2024/01/24 05:25:22;;;;;;;29.02;13.77;;;;;;;1.11;100.00;101492.47;5549671;32;34601;-68
2024/01/24 05:28:25;;;;;;;28.98;14.43;;;;;;;1.14;100.00;101497.50;5550450;32;34163;-68
2024/01/24 05:31:28;;;;;;;25.35;13.15;;;;;;;1.20;100.00;101496.34;5550323;32;34777;-69
2024/01/24 05:34:31;;;;;;;27.05;14.30;;;;;;;1.23;100.00;101501.41;5550581;32;34059;-68
2024/01/24 05:37:34;;;;;;;26.62;14.73;;;;;;;1.25;100.00;101486.50;5550557;32;34739;-70
2024/01/24 05:40:37;;;;;;;23.25;13.95;;;;;;;1.29;100.00;101485.41;5550708;32;34007;-68
2024/01/24 05:43:42;;;;;;;28.52;14.52;;;;;;;1.45;100.00;101503.72;5550267;32;34820;-69
2024/01/24 05:46:45;;;;;;;25.02;12.20;;;;;;;1.47;100.00;101505.31;5550473;32;34037;-69
2024/01/24 05:49:48;;;;;;;24.17;12.32;;;;;;;1.51;100.00;101493.78;5550438;32;34711;-69
2024/01/24 05:52:51;;;;;;;27.65;13.68;;;;;;;1.51;100.00;101485.94;5549999;32;34032;-69
2024/01/24 05:55:54;;;;;;;24.65;12.50;;;;;;;1.61;100.00;101473.19;5549762;32;32959;-68
2024/01/24 05:58:57;;;;;;;25.17;13.43;;;;;;;1.67;100.00;101462.41;5550337;32;34790;-68
2024/01/24 06:02:00;;;;;;;26.10;13.68;;;;;;;1.68;100.00;101464.94;5549390;32;34778;-68
2024/01/24 06:05:04;;;;;;;24.87;13.18;;;;;;;1.67;100.00;101468.47;5550448;32;34137;-69
2024/01/24 06:08:07;;;;;;;24.90;11.80;;;;;;;1.69;100.00;101463.19;5550542;32;34127;-70
2024/01/24 06:11:11;;;;;;;21.62;11.57;;;;;;;1.66;100.00;101466.78;5550221;32;34079;-69
2024/01/24 06:14:14;;;;;;;21.20;11.30;;;;;;;1.73;100.00;101472.53;5550270;32;35262;-69
2024/01/24 06:17:17;;;;;;;21.27;10.38;;;;;;;1.75;100.00;101468.03;5550208;32;34256;-69
2024/01/24 06:20:20;;;;;;;20.77;9.75;;;;;;;1.84;100.00;101469.31;5549654;32;34084;-68
2024/01/24 06:23:23;;;;;;;18.37;9.48;;;;;;;1.91;100.00;101470.66;5549610;32;33997;-70
2024/01/24 06:26:25;;;;;;;21.15;9.68;;;;;;;2.01;100.00;101469.22;5550047;32;33999;-68
2024/01/24 06:29:29;;;;;;;19.12;9.30;;;;;;;2.02;100.00;101465.66;5545205;32;144793;-70
2024/01/24 06:32:52;;;;;;;14.70;8.45;;;;;;;2.06;100.00;101459.31;5541611;32;34758;-68
2024/01/24 06:35:55;;;;;;;21.80;9.05;;;;;;;2.15;100.00;101450.94;5549919;32;35499;-69
2024/01/24 06:38:58;;;;;;;18.65;9.02;;;;;;;2.17;100.00;101442.09;5549609;32;34103;-68
2024/01/24 06:42:01;;;;;;;19.83;8.60;;;;;;;2.25;100.00;101431.16;5549454;32;34106;-69
2024/01/24 06:45:06;;;;;;;20.88;9.23;;;;;;;2.24;100.00;101420.78;5549770;32;34299;-69
2024/01/24 06:48:09;;;;;;;21.80;9.32;;;;;;;2.19;100.00;101398.31;5548776;32;34456;-69
2024/01/24 06:51:13;;;;;;;18.65;9.65;;;;;;;2.13;100.00;101403.09;5548514;32;34044;-69
2024/01/24 06:54:16;;;;;;;19.98;10.50;;;;;;;2.08;100.00;101395.47;5548456;32;34266;-70
2024/01/24 06:57:19;;;;;;;20.45;10.23;;;;;;;1.97;100.00;101390.03;5548978;32;34793;-68
2024/01/24 07:00:23;;;;;;;18.73;10.18;;;;;;;1.90;100.00;101388.69;5549305;32;34114;-68
2024/01/24 07:03:25;;;;;;;20.50;10.88;;;;;;;1.85;100.00;101389.87;5548472;32;34029;-69
2024/01/24 07:06:29;;;;;;;24.30;11.00;;;;;;;1.75;100.00;101377.34;5549891;32;34042;-71
2024/01/24 07:09:32;;;;;;;20.12;10.95;;;;;;;1.77;100.00;101373.78;5549548;32;34473;-70
2024/01/24 07:12:36;;;;;;;21.65;11.35;;;;;;;1.72;100.00;101368.81;5549805;32;34195;-69
2024/01/24 07:15:39;;;;;;;23.38;11.77;;;;;;;1.73;100.00;101362.66;5549312;32;35027;-70
2024/01/24 07:18:43;;;;;;;23.52;11.57;;;;;;;1.72;100.00;101372.28;5549426;32;34012;-70
2024/01/24 07:21:47;;;;;;;21.67;11.30;;;;;;;1.66;100.00;101349.09;5549527;32;34001;-70
2024/01/24 07:24:50;;;;;;;23.95;11.68;;;;;;;1.57;100.00;101346.16;5549312;32;34101;-71
2024/01/24 07:27:53;;;;;;;23.50;11.25;;;;;;;1.62;100.00;101351.97;5549084;32;34187;-71
2024/01/24 07:30:56;;;;;;;22.67;12.30;;;;;;;1.61;100.00;101351.13;5549044;32;34211;-71
2024/01/24 07:33:59;;;;;;;23.90;12.32;;;;;;;1.59;100.00;101358.22;5548682;32;34133;-70
2024/01/24 07:37:03;;;;;;;26.52;13.15;;;;;;;1.64;100.00;101344.88;5548925;32;34939;-70
2024/01/24 07:40:07;;;;;;;26.73;13.30;;;;;;;1.71;100.00;101344.44;5547940;32;34113;-70
2024/01/24 07:43:10;;;;;;;22.58;12.02;;;;;;;1.80;100.00;101331.75;5549125;32;34565;-69
2024/01/24 07:46:13;;;;;;;20.98;12.77;;;;;;;1.92;100.00;101328.44;5548776;32;34308;-69
2024/01/24 07:49:17;;;;;;;25.75;13.68;;;;;;;2.02;100.00;101342.66;5548204;32;33954;-69
2024/01/24 07:52:20;;;;;;;24.17;12.75;;;;;;;1.95;100.00;101333.47;5548563;32;34243;-69
2024/01/24 07:55:38;;;;;;;22.92;13.57;;;;;;;1.73;100.00;101321.66;5548428;32;34088;-69
2024/01/24 07:59:01;;;;;;;28.90;14.65;;;;;;;1.68;100.00;101322.84;5548621;32;35234;-69
2024/01/24 08:02:06;;;;;;;25.95;14.70;;;;;;;1.71;100.00;101322.66;5548767;32;34771;-69
2024/01/24 08:05:12;;;;;;;27.75;15.18;;;;;;;1.68;100.00;101318.47;5550617;32;34106;-70
2024/01/24 08:08:15;;;;;;;29.83;15.75;;;;;;;1.74;100.00;101314.66;5551370;32;33973;-69
2024/01/24 08:11:21;;;;;;;27.05;15.75;;;;;;;1.69;100.00;101301.00;5551217;32;34877;-70
2024/01/24 08:14:24;;;;;;;27.73;15.25;;;;;;;1.69;100.00;101312.28;5551084;32;34728;-69
2024/01/24 08:17:28;;;;;;;28.87;15.48;;;;;;;1.75;100.00;101335.47;5550204;32;34386;-70
2024/01/24 08:20:30;;;;;;;27.70;16.02;;;;;;;1.75;100.00;101324.16;5550852;32;34727;-70
2024/01/24 08:23:33;;;;;;;26.90;15.70;;;;;;;1.79;100.00;101314.38;5550866;32;34032;-70
2024/01/24 08:26:50;;;;;;;26.30;16.52;;;;;;;1.80;100.00;101314.28;5550856;32;34105;-70
2024/01/24 08:29:54;;;;;;;30.27;17.35;;;;;;;1.81;100.00;101315.13;5550676;32;34206;-70
2024/01/24 08:32:56;;;;;;;26.60;16.62;;;;;;;1.82;100.00;101322.91;5550594;32;34761;-70
2024/01/24 08:36:00;;;;;;;31.35;18.35;;;;;;;1.79;100.00;101317.00;5550615;32;33988;-70
2024/01/24 08:39:05;;;;;;;32.60;17.60;;;;;;;1.81;100.00;101309.91;5550761;32;33763;-69
2024/01/24 08:42:08;;;;;;;30.15;17.42;;;;;;;1.83;100.00;101287.13;5550574;32;35627;-69
2024/01/24 08:45:11;;;;;;;28.58;17.83;;;;;;;1.86;100.00;101294.78;5550113;32;34807;-69
2024/01/24 08:48:14;;;;;;;23.50;15.52;;;;;;;1.91;100.00;101285.72;5550216;32;34265;-69
2024/01/24 08:51:17;;;;;;;25.48;14.77;;;;;;;2.09;100.00;101282.00;5550824;32;34117;-70
2024/01/24 08:54:20;;;;;;;27.87;16.65;;;;;;;2.24;100.00;101284.63;5549743;32;33976;-70
2024/01/24 08:57:24;;;;;;;24.98;15.95;;;;;;;2.25;100.00;101281.09;5549710;32;34088;-69
2024/01/24 09:00:27;;;;;;;28.48;17.65;;;;;;;2.20;100.00;101270.91;5550717;32;33980;-70
2024/01/24 09:03:30;;;;;;;30.55;17.83;;;;;;;2.18;100.00;101257.03;5550732;32;34114;-70
2024/01/24 09:06:33;;;;;;;31.25;17.75;;;;;;;2.16;100.00;101266.78;5550577;32;33927;-70
2024/01/24 09:09:36;;;;;;;32.25;18.20;;;;;;;2.12;100.00;101278.38;5550564;32;34113;-70
2024/01/24 09:12:43;;;;;;;29.52;18.35;;;;;;;2.11;100.00;101264.44;5550476;32;34814;-70
2024/01/24 09:15:47;;;;;;;32.22;18.90;;;;;;;2.07;100.00;101252.50;5549455;32;34761;-70
2024/01/24 09:18:51;;;;;;;30.10;18.40;;;;;;;2.09;100.00;101234.91;5550331;32;35050;-70
2024/01/24 09:21:55;;;;;;;23.55;15.88;;;;;;;2.15;100.00;101237.16;5550757;32;34017;-70
2024/01/24 09:24:58;;;;;;;22.40;13.62;;;;;;;2.19;100.00;101230.78;5549559;32;34801;-69
2024/01/24 09:28:04;;;;;;;21.60;12.60;;;;;;;2.40;100.00;101227.78;5549559;32;34248;-70
2024/01/24 09:31:08;;;;;;;18.85;12.18;;;;;;;2.57;100.00;101220.56;5550039;32;34280;-69
2024/01/24 09:34:11;;;;;;;18.85;12.10;;;;;;;2.64;100.00;101202.69;5549523;32;33915;-69
2024/01/24 09:37:15;;;;;;;17.83;11.27;;;;;;;2.64;100.00;101194.81;5550436;32;34097;-69
2024/01/24 09:40:17;;;;;;;19.37;12.05;;;;;;;2.70;100.00;101209.31;5550352;32;34152;-69
2024/01/24 09:43:23;;;;;;;21.65;12.63;;;;;;;2.72;100.00;101213.50;5549463;32;35052;-69
2024/01/24 09:46:28;;;;;;;23.27;12.98;;;;;;;2.76;100.00;101177.50;5549388;32;34693;-70
2024/01/24 09:49:31;;;;;;;19.85;12.57;;;;;;;2.77;100.00;101187.00;5550192;32;35646;-69
2024/01/24 09:52:35;;;;;;;17.52;12.13;;;;;;;2.77;100.00;101177.38;5550248;32;34761;-68
2024/01/24 09:55:39;;;;;;;21.60;13.25;;;;;;;2.78;100.00;101183.47;5550087;32;34854;-68
2024/01/24 09:58:42;;;;;;;20.17;13.18;;;;;;;2.79;100.00;101169.44;5549471;32;34655;-69
2024/01/24 10:01:45;;;;;;;23.40;14.00;;;;;;;2.80;100.00;101153.62;5549965;32;34535;-68
2024/01/24 10:04:50;;;;;;;22.70;13.48;;;;;;;2.83;100.00;101150.78;5549798;32;34880;-68
2024/01/24 10:07:54;;;;;;;22.15;13.65;;;;;;;2.86;100.00;101124.38;5550067;32;34219;-68
2024/01/24 10:10:57;;;;;;;25.70;14.87;;;;;;;2.94;100.00;101122.09;5548909;32;34030;-68
2024/01/24 10:14:00;;;;;;;24.33;14.57;;;;;;;2.98;100.00;101113.09;5550211;32;34017;-68
2024/01/24 10:17:05;;;;;;;22.83;14.50;;;;;;;3.02;100.00;101100.63;5549051;32;34702;-68
2024/01/24 10:20:11;;;;;;;25.98;14.68;;;;;;;3.11;100.00;101091.28;5549629;32;34280;-69
2024/01/24 10:23:15;;;;;;;23.52;14.25;;;;;;;3.11;100.00;101079.03;5548913;32;34181;-68
2024/01/24 10:26:19;;;;;;;27.23;14.68;;;;;;;3.12;100.00;101070.22;5548910;32;34889;-69
2024/01/24 10:29:23;;;;;;;26.15;14.90;;;;;;;3.13;100.00;101060.59;5549426;32;34000;-70
2024/01/24 10:32:26;;;;;;;26.62;14.57;;;;;;;3.19;100.00;101047.91;5549728;32;34205;-69
2024/01/24 10:35:30;;;;;;;23.30;13.18;;;;;;;3.25;100.00;101059.75;5549857;32;34216;-68
2024/01/24 10:38:36;;;;;;;18.10;11.80;;;;;;;3.25;100.00;101047.47;5550055;32;35508;-67
2024/01/24 10:41:42;;;;;;;19.52;11.68;;;;;;;3.31;100.00;101054.94;5549714;32;34754;-68
2024/01/24 10:44:49;;;;;;;17.33;10.52;;;;;;;3.34;100.00;101046.03;5548750;32;34733;-68
2024/01/24 10:47:53;;;;;;;19.60;11.00;;;;;;;3.44;100.00;101033.94;5550139;32;34683;-67
2024/01/24 10:50:57;;;;;;;19.80;11.20;;;;;;;3.41;100.00;101037.63;5549931;32;34352;-68
2024/01/24 10:54:04;;;;;;;19.37;11.57;;;;;;;3.42;100.00;101039.31;5550138;32;33964;-69
2024/01/24 10:57:12;;;;;;;17.20;11.68;;;;;;;3.48;100.00;101032.78;5549831;32;33881;-71
2024/01/24 11:00:19;;;;;;;22.95;11.85;;;;;;;3.41;100.00;100995.66;5549621;32;34797;-68
2024/01/24 11:03:22;;;;;;;20.92;12.00;;;;;;;3.44;100.00;100984.09;5549281;32;34092;-68
2024/01/24 11:06:28;;;;;;;24.25;12.73;;;;;;;3.50;100.00;100971.41;5549291;32;34952;-69
2024/01/24 11:09:37;;;;;;;19.30;11.35;;;;;;;3.48;100.00;100951.50;5549652;32;34804;-68
2024/01/24 11:12:40;;;;;;;18.37;11.00;;;;;;;3.48;100.00;100939.22;5548671;32;33955;-69
2024/01/24 11:15:45;;;;;;;17.85;9.90;;;;;;;3.51;100.00;100932.91;5549332;32;34001;-67
2024/01/24 11:18:48;;;;;;;14.00;8.32;;;;;;;3.64;100.00;100930.22;5549201;32;34303;-69
2024/01/24 11:21:55;;;;;;;14.38;8.20;;;;;;;3.71;100.00;100936.72;5548950;32;35310;-68
2024/01/24 11:24:59;;;;;;;12.15;6.50;;;;;;;3.72;100.00;100915.63;5548913;32;34029;-68
2024/01/24 11:28:02;;;;;;;11.85;6.47;;;;;;;3.82;100.00;100915.78;5549524;32;35107;-70
2024/01/24 11:31:07;;;;;;;12.07;6.00;;;;;;;3.85;100.00;100916.41;5549027;32;34775;-68
2024/01/24 11:34:12;;;;;;;11.68;5.85;;;;;;;4.00;100.00;100903.94;5549142;32;34114;-69
2024/01/24 11:37:15;;;;;;;10.70;5.97;;;;;;;4.03;100.00;100876.63;5549234;32;34743;-68
2024/01/24 11:40:21;;;;;;;12.90;5.80;;;;;;;4.08;100.00;100848.22;5554543;32;34720;-68
2024/01/24 11:43:28;;;;;;;11.88;5.57;;;;;;;4.25;100.00;100832.06;5555239;32;34016;-70
2024/01/24 11:46:36;;;;;;;10.80;5.85;;;;;;;4.30;100.00;100846.53;5555157;32;34131;-67
2024/01/24 11:49:39;;;;;;;12.80;6.25;;;;;;;4.31;100.00;100866.56;5555383;32;35492;-69
2024/01/24 11:52:42;;;;;;;13.23;5.85;;;;;;;4.30;100.00;100874.56;5554911;32;34870;-69
2024/01/24 11:55:57;;;;;;;12.35;5.93;;;;;;;4.23;100.00;100883.84;5555112;32;34730;-68
2024/01/24 11:59:00;;;;;;;10.77;5.95;;;;;;;4.20;100.00;100874.44;5555121;32;34121;-70
2024/01/24 12:02:05;;;;;;;14.20;6.18;;;;;;;4.19;100.00;100892.91;5555059;32;34758;-69
2024/01/24 12:05:08;;;;;;;11.20;5.40;;;;;;;4.21;100.00;100888.41;5555208;32;34741;-67
2024/01/24 12:08:12;;;;;;;9.65;5.43;;;;;;;4.19;100.00;100890.28;5554954;32;35747;-68
2024/01/24 12:11:15;;;;;;;12.00;6.00;;;;;;;4.16;100.00;100899.25;5555157;32;32463;-68
2024/01/24 12:14:18;;;;;;;11.48;6.25;;;;;;;4.23;100.00;100868.94;5554503;32;34904;-71
2024/01/24 12:17:22;;;;;;;11.93;6.50;;;;;;;4.25;100.00;100884.59;5554761;32;33981;-69
2024/01/24 12:20:26;;;;;;;11.20;6.35;;;;;;;4.28;100.00;100885.19;5554021;32;34249;-69
2024/01/24 12:23:30;;;;;;;15.10;7.85;;;;;;;4.20;100.00;100890.19;5554599;32;34409;-69
2024/01/24 12:26:33;;;;;;;13.75;7.53;;;;;;;4.13;100.00;100890.72;5554095;32;34018;-69
2024/01/24 12:29:36;;;;;;;13.75;7.75;;;;;;;4.14;100.00;100885.38;5553912;32;34013;-69
2024/01/24 12:32:40;;;;;;;14.43;8.13;;;;;;;4.07;100.00;100897.28;5553847;32;34138;-68
2024/01/24 12:35:48;;;;;;;14.50;7.95;;;;;;;4.01;100.00;100887.25;5554435;32;34011;-68
2024/01/24 12:38:54;;;;;;;15.88;7.90;;;;;;;3.99;100.00;100880.41;5554319;32;33961;-68
2024/01/24 12:41:57;;;;;;;18.37;9.00;;;;;;;4.06;100.00;100865.91;5554538;32;34265;-68
2024/01/24 12:45:00;;;;;;;14.50;8.23;;;;;;;4.15;100.00;100855.56;5554141;32;34142;-68
2024/01/24 12:48:10;;;;;;;19.30;8.07;;;;;;;4.25;100.00;100861.78;5554439;32;34086;-68
2024/01/24 12:51:13;;;;;;;17.27;8.00;;;;;;;4.29;100.00;100851.88;5550524;32;32934;-69
2024/01/24 12:54:16;;;;;;;15.82;8.88;;;;;;;4.18;100.00;100844.81;5550616;32;34412;-68
2024/01/24 12:57:19;;;;;;;18.62;9.70;;;;;;;4.10;100.00;100815.66;5550820;32;34060;-68
2024/01/24 13:00:23;;;;;;;25.08;11.95;;;;;;;4.07;100.00;100812.41;5550073;32;34655;-69
2024/01/24 13:03:25;;;;;;;24.08;11.35;;;;;;;3.98;100.00;100806.06;5550715;32;34020;-69
2024/01/24 13:06:32;;;;;;;22.80;12.68;;;;;;;4.01;100.00;100805.03;5550731;32;34759;-69
2024/01/24 13:09:35;;;;;;;21.75;12.88;;;;;;;4.05;100.00;100815.19;5550619;32;34191;-68
2024/01/24 13:12:47;;;;;;;23.48;12.57;;;;;;;3.93;100.00;100813.47;5549849;32;34152;-69
2024/01/24 13:15:53;;;;;;;25.55;13.65;;;;;;;3.90;100.00;100806.66;5550511;32;34127;-68
2024/01/24 13:18:56;;;;;;;23.95;11.68;;;;;;;3.83;100.00;100815.09;5550403;32;34048;-67
2024/01/24 13:21:59;;;;;;;21.42;12.88;;;;;;;3.76;100.00;100819.16;5550259;32;34080;-67
2024/01/24 13:25:03;;;;;;;21.45;13.00;;;;;;;3.74;100.00;100821.88;5549449;32;34310;-67
2024/01/24 13:28:08;;;;;;;24.85;13.23;;;;;;;3.73;100.00;100811.47;5550443;32;34044;-67
2024/01/24 13:31:14;;;;;;;24.50;13.60;;;;;;;3.73;100.00;100806.22;5549995;32;33962;-67
2024/01/24 13:34:17;;;;;;;24.87;14.38;;;;;;;3.71;100.00;100788.00;5550267;32;33854;-68
2024/01/24 13:37:20;;;;;;;28.45;15.80;;;;;;;3.65;100.00;100772.69;5550533;32;35059;-68
2024/01/24 13:40:22;;;;;;;30.02;14.50;;;;;;;3.67;100.00;100764.72;5550297;32;34172;-69
2024/01/24 13:43:25;;;;;;;23.85;14.18;;;;;;;3.59;100.00;100775.78;5550405;32;34109;-69
2024/01/24 13:46:28;;;;;;;24.20;14.38;;;;;;;3.64;100.00;100778.91;5549581;32;32734;-69
2024/01/24 13:49:31;;;;;;;22.10;12.23;;;;;;;3.67;100.00;100768.19;5550387;32;34015;-68
2024/01/24 13:52:34;;;;;;;19.15;11.35;;;;;;;3.68;100.00;100771.66;5550227;32;34900;-68